Latest Weather Observations for Mount Read

IDT60801

Issued at 6:31 am EST Monday 27 April 2015 (issued every 30 minutes, with the page automatically refreshed every 10 minutes)

About weather observations | Map of weather stations | Latest weather observations for TAS | Other Formats
Station Details ID: 097085 Name: MOUNT READ Lat: -41.84 Lon: 145.54 Height: 1119.5 m
Data from the previous 72 hours. | See also: Recent months at Mount Read
Date/Time
EST
Temp
°C
App
Temp
°C
Dew
Point
Rel
Hum
%
Delta-T
°C
Wind Press
QNH
hPa
Press
MSL
hPa
Rain
since 9 am
mm
Dir
 
Spd
km/h
Gust
km/h
Spd
kts
Gust
kts
27/06:30am 1.7 -5.4 1.6 99 0.0 SSW 28 33 15 18 1016.4 1016.6 16.8
27/06:00am 1.5 -5.2 1.4 99 0.0 SSW 26 33 14 18 1016.2 1016.4 16.4
27/05:30am 1.5 -7.3 1.4 99 0.0 SSW 37 44 20 24 1015.9 1016.1 16.2
27/05:00am 1.6 -6.8 1.5 99 0.0 SSW 35 43 19 23 1015.7 1015.8 16.2
27/04:30am 1.6 -5.9 1.5 99 0.0 SSW 30 39 16 21 1015.4 1015.6 15.8
27/04:00am 1.4 -8.6 1.3 99 0.0 SSW 43 54 23 29 1014.9 1015.0 15.2
27/03:30am 1.5 -8.1 1.4 99 0.0 SSW 41 52 22 28 1014.8 1014.9 15.0
27/03:00am 1.4 -7.8 1.3 99 0.0 SSW 39 52 21 28 1014.7 1014.8 14.8
27/02:30am 1.5 -6.9 1.4 99 0.0 SSW 35 48 19 26 1014.8 1014.9 14.4
27/02:00am 1.5 -7.3 1.4 99 0.0 SSW 37 52 20 28 1014.8 1014.9 13.8
27/01:30am 1.5 -8.6 1.4 99 0.0 SSW 44 57 24 31 1014.5 1014.7 13.6
27/01:00am 1.4 -8.6 1.3 99 0.0 SSW 43 56 23 30 1014.5 1014.7 13.0
27/12:30am 1.5 -9.4 1.4 99 0.0 SSW 48 57 26 31 1014.4 1014.6 12.8
27/12:00am 1.5 -7.3 1.4 99 0.0 SSW 37 50 20 27 1014.4 1014.6 12.6
 
Date/Time
EST
Temp
°C
App
Temp
°C
Dew
Point
Rel
Hum
%
Delta-T
°C
Wind Press
QNH
hPa
Press
MSL
hPa
Rain
since 9 am
mm
Dir
 
Spd
km/h
Gust
km/h
Spd
kts
Gust
kts
26/11:30pm 1.5 -8.1 1.4 99 0.0 SSW 41 50 22 27 1014.4 1014.6 12.4
26/11:00pm 1.5 -8.6 1.4 99 0.0 SSW 44 57 24 31 1014.2 1014.3 11.8
26/10:30pm 1.6 -8.5 1.5 99 0.0 SSW 44 56 24 30 1014.2 1014.3 11.6
26/10:00pm 1.6 -8.5 1.5 99 0.0 SSW 44 57 24 31 1014.2 1014.3 11.0
26/09:30pm 1.6 -7.6 1.5 99 0.0 SSW 39 52 21 28 1014.3 1014.4 10.4
26/09:14pm 1.7 -8.2 1.6 99 0.0 SSW 43 61 23 33 1014.1 1014.2 9.6
26/09:00pm 1.6 -8.5 1.5 99 0.0 SSW 44 57 24 31 1014.0 1014.1 9.6
26/08:30pm 1.7 -7.8 1.6 99 0.0 SSW 41 57 22 31 1014.0 1014.1 9.4
26/08:00pm 1.6 -8.3 1.5 99 0.0 SSW 43 50 23 27 1013.8 1013.9 9.0
26/07:30pm 1.8 -8.1 1.7 99 0.0 SSW 43 61 23 33 1013.5 1013.6 8.8
26/07:25pm 1.8 -8.1 1.7 99 0.0 SSW 43 63 23 34 1013.7 1013.8 8.8
26/07:00pm 2.0 -7.5 1.9 99 0.0 SSW 41 57 22 31 1013.4 1013.5 8.2
26/06:30pm 2.2 -7.8 2.1 99 0.0 SSW 44 57 24 31 1013.2 1013.3 8.0
26/06:03pm 2.3 -5.6 2.2 99 0.0 SSW 33 54 18 29 1012.9 1013.0 7.2
26/06:00pm 2.3 -6.4 2.2 99 0.0 SSW 37 54 20 29 1012.9 1013.0 7.2
26/05:30pm 2.6 -6.4 2.5 99 0.0 SSW 39 59 21 32 1012.4 1012.5 6.0
26/05:00pm 2.8 -5.0 2.7 99 0.0 SSW 33 52 18 28 1012.4 1012.5 5.4
26/04:30pm 3.0 -3.8 2.9 99 0.0 SW 28 50 15 27 1012.2 1012.3 4.2
26/04:00pm 2.8 -4.5 2.7 99 0.0 SW 30 44 16 24 1012.3 1012.4 3.6
26/03:30pm 2.8 -5.0 2.7 99 0.0 WSW 33 46 18 25 1012.3 1012.4 2.6
26/03:00pm 3.0 -4.8 2.9 99 0.0 SW 33 44 18 24 1012.2 1012.3 2.2
26/02:30pm 3.2 -3.6 3.1 99 0.0 SW 28 41 15 22 1012.3 1012.4 2.0
26/02:00pm 3.1 -4.5 3.0 99 0.0 SW 32 41 17 22 1012.3 1012.4 1.6
26/01:30pm 2.9 -4.7 2.8 99 0.0 WSW 32 43 17 23 1012.4 1012.5 1.6
26/01:00pm 3.1 -4.5 3.0 99 0.0 SW 32 43 17 23 1012.4 1012.5 1.4
26/12:30pm 2.9 -3.2 2.8 99 0.0 SW 24 33 13 18 1012.7 1012.7 1.4
26/12:00pm 2.8 -2.9 2.7 99 0.0 SW 22 35 12 19 1012.8 1012.8 0.6
26/11:30am 2.4 -5.3 2.3 99 0.0 SW 32 39 17 21 1012.9 1013.0 0.6
26/11:00am 2.3 -3.1 2.2 99 0.0 WSW 20 30 11 16 1013.0 1013.1 0.2
26/10:30am 2.0 -3.5 1.9 99 0.0 WSW 20 26 11 14 1013.1 1013.2 0.0
26/10:00am 2.0 -4.6 1.9 99 0.0 SW 26 33 14 18 1013.0 1013.1 0.0
26/09:30am 1.4 -4.9 1.3 99 0.0 SW 24 33 13 18 1012.9 1013.0 0.0
26/09:00am 1.0 -5.8 0.9 99 0.0 SW 26 35 14 19 1012.9 1013.0 4.6
26/08:30am 0.7 -6.9 0.6 99 0.0 SSW 30 37 16 20 1012.9 1013.0 4.6
26/08:00am 0.3 -5.8 0.2 99 0.0 SSW 22 30 12 16 1012.8 1012.8 4.4
26/07:30am 0.2 -6.7 0.1 99 0.0 SSW 26 37 14 20 1012.5 1012.6 4.2
26/07:00am 0.2 -8.0 0.1 99 0.0 SSW 33 44 18 24 1012.2 1012.3 4.2
26/06:30am 0.3 -6.6 0.2 99 0.0 SSW 26 39 14 21 1011.9 1011.9 4.0
26/06:00am 0.2 -7.1 0.1 99 0.0 SSW 28 35 15 19 1011.8 1011.8 4.0
26/05:30am 0.1 -6.4 0.0 99 0.0 SSW 24 30 13 16 1011.8 1011.8 4.0
26/05:00am 0.0 -7.3 -0.1 99 0.0 SSW 28 39 15 21 1011.6 1011.7 4.0
26/04:30am 0.0 -7.7 -0.1 99 0.0 SSW 30 37 16 20 1011.5 1011.6 4.0
26/04:00am 0.1 -7.2 0.0 99 0.0 SSW 28 33 15 18 1011.4 1011.5 4.0
26/03:30am 0.1 -7.2 0.0 99 0.0 SSW 28 35 15 19 1011.5 1011.6 4.0
26/03:00am 0.2 -7.5 0.1 99 0.0 SSW 30 37 16 20 1011.3 1011.4 4.0
26/02:30am 0.3 -8.3 0.2 99 0.0 SSW 35 44 19 24 1011.4 1011.5 4.0
26/02:00am 0.0 -8.3 -0.1 99 0.0 SSW 33 39 18 21 1011.6 1011.7 4.0
26/01:30am 0.6 -7.0 0.5 99 0.0 S 30 37 16 20 1011.8 1011.8 4.0
26/01:00am 0.7 -6.5 0.6 99 0.0 S 28 33 15 18 1011.8 1011.8 4.0
26/12:30am 0.9 -6.3 0.8 99 0.0 SSW 28 33 15 18 1011.8 1011.8 3.8
26/12:00am 0.8 -6.4 0.7 99 0.0 SSW 28 32 15 17 1011.8 1011.8 3.8
 
Date/Time
EST
Temp
°C
App
Temp
°C
Dew
Point
Rel
Hum
%
Delta-T
°C
Wind Press
QNH
hPa
Press
MSL
hPa
Rain
since 9 am
mm
Dir
 
Spd
km/h
Gust
km/h
Spd
kts
Gust
kts
25/11:30pm 0.9 -5.9 0.8 99 0.0 SSW 26 33 14 18 1011.9 1011.9 3.8
25/11:00pm 1.2 -5.6 1.1 99 0.0 SSW 26 32 14 17 1011.9 1011.9 3.8
25/10:30pm 1.4 -5.3 1.3 99 0.0 SSW 26 33 14 18 1012.0 1012.0 3.6
25/10:00pm 1.6 -4.7 1.5 99 0.0 SSW 24 32 13 17 1012.1 1012.2 3.6
25/09:30pm 1.9 -4.4 1.8 99 0.0 SSW 24 28 13 15 1012.0 1012.0 3.2
25/09:00pm 2.1 -3.4 2.0 99 0.0 SSW 20 26 11 14 1011.9 1011.9 2.6
25/08:30pm 2.2 -3.1 2.1 99 0.0 SSW 19 24 10 13 1011.8 1011.8 2.6
25/08:00pm 2.4 -3.8 2.3 99 0.0 SSW 24 28 13 15 1011.6 1011.7 2.4
25/07:30pm 2.7 -3.8 2.6 99 0.0 SSW 26 32 14 17 1011.5 1011.6 2.2
25/07:00pm 2.9 -3.6 2.8 99 0.0 SSW 26 30 14 16 1011.1 1011.1 1.8
25/06:30pm 3.1 -3.3 3.0 99 0.0 SSW 26 30 14 16 1010.9 1010.9 1.6
25/06:00pm 3.5 -2.5 3.4 99 0.0 SSW 24 28 13 15 1010.4 1010.4 1.2
25/05:30pm 3.7 -1.5 3.6 99 0.0 SSW 20 26 11 14 1010.2 1010.2 1.2
25/05:00pm 3.8 -2.5 3.7 99 0.0 SSW 26 32 14 17 1010.0 1010.0 0.8
25/04:30pm 4.2 -2.0 4.1 99 0.0 SSW 26 32 14 17 1009.9 1009.9 0.6
25/04:00pm 4.9 -0.8 4.8 99 0.0 SSW 24 30 13 16 1009.8 1009.8 0.4
25/03:30pm 5.4 -0.2 5.4 100 0.0 SSW 24 28 13 15 1009.5 1009.5 0.2
25/03:00pm 5.6 0.4 5.6 100 0.0 S 22 26 12 14 1009.3 1009.3 0.0
25/02:30pm 6.1 1.6 6.1 100 0.0 SSW 19 22 10 12 1009.2 1009.2 0.0
25/02:00pm 6.2 2.5 6.2 100 0.0 SSW 15 19 8 10 1009.1 1009.1 0.0
25/01:30pm 6.3 3.0 6.3 100 0.0 S 13 17 7 9 1009.0 1009.0 0.0
25/01:00pm 6.3 3.0 6.3 100 0.0 S 13 20 7 11 1009.1 1009.1 0.0
25/12:30pm 6.6 4.1 6.6 100 0.0 SSE 9 15 5 8 1009.0 1009.0 0.0
25/12:00pm 6.3 3.7 6.3 100 0.0 SSE 9 15 5 8 1009.0 1009.0 0.0
25/11:30am 5.8 2.0 5.8 100 0.0 SSE 15 20 8 11 1009.0 1009.0 0.0
25/11:00am 5.5 1.3 5.5 100 0.0 SSE 17 20 9 11 1008.9 1008.8 0.0
25/10:30am 4.8 0.0 4.7 99 0.0 S 19 30 10 16 1008.6 1008.6 0.0
25/10:00am 4.5 -1.3 4.4 99 0.0 SSE 24 32 13 17 1008.5 1008.5 0.0
25/09:30am 4.3 -1.9 4.2 99 0.0 SSE 26 35 14 19 1008.3 1008.3 0.0
25/09:00am 4.1 -2.9 4.0 99 0.0 SSE 30 35 16 19 1008.2 1008.2 1.0
25/08:30am 4.1 -3.3 4.0 99 0.0 S 32 35 17 19 1007.9 1007.8 1.0
25/08:00am 3.6 -4.8 3.5 99 0.0 S 37 43 20 23 1007.5 1007.5 1.0
25/07:30am 3.4 -5.8 3.3 99 0.0 S 41 44 22 24 1006.9 1006.8 1.0
25/07:00am 3.3 -5.2 3.2 99 0.0 SSE 37 41 20 22 1006.6 1006.6 1.0
25/06:30am 3.6 -3.9 3.5 99 0.0 SSE 32 39 17 21 1006.4 1006.3 1.0
25/06:00am 3.9 -2.4 3.8 99 0.0 SSE 26 32 14 17 1006.3 1006.2 1.0
25/05:30am 4.0 -3.6 3.9 99 0.0 S 33 39 18 21 1005.9 1005.8 1.0
25/05:00am 4.1 -4.2 4.0 99 0.0 S 37 43 20 23 1005.6 1005.5 1.0
25/04:30am 4.0 -3.6 3.9 99 0.0 S 33 37 18 20 1005.3 1005.2 0.8
25/04:00am 3.9 -4.1 3.8 99 0.0 S 35 41 19 22 1005.0 1004.8 0.8
25/03:30am 3.8 -3.8 3.7 99 0.0 S 33 37 18 20 1005.0 1004.8 0.6
25/03:00am 3.8 -3.7 3.7 99 0.0 S 32 35 17 19 1004.8 1004.7 0.6
25/02:30am 3.8 -2.5 3.7 99 0.0 S 26 30 14 16 1004.8 1004.7 0.6
25/02:00am 4.0 -2.7 3.9 99 0.0 S 28 32 15 17 1004.8 1004.7 0.6
25/01:30am 4.3 -2.3 4.2 99 0.0 S 28 32 15 17 1004.7 1004.6 0.6
25/01:00am 4.4 -2.2 4.3 99 0.0 S 28 33 15 18 1004.7 1004.6 0.6
25/12:30am 4.6 -1.6 4.5 99 0.0 S 26 30 14 16 1004.8 1004.7 0.6
25/12:00am 4.8 -0.9 4.7 99 0.0 S 24 28 13 15 1004.7 1004.6 0.4
 
Date/Time
EST
Temp
°C
App
Temp
°C
Dew
Point
Rel
Hum
%
Delta-T
°C
Wind Press
QNH
hPa
Press
MSL
hPa
Rain
since 9 am
mm
Dir
 
Spd
km/h
Gust
km/h
Spd
kts
Gust
kts
24/11:30pm 4.9 -0.8 4.8 99 0.0 S 24 28 13 15 1004.7 1004.6 0.4
24/11:00pm 5.0 0.1 4.9 99 0.0 S 20 22 11 12 1004.8 1004.7 0.4
24/10:30pm 5.2 -0.1 5.1 99 0.0 S 22 24 12 13 1004.7 1004.6 0.4
24/10:00pm 5.3 0.0 5.2 99 0.0 S 22 24 12 13 1004.6 1004.5 0.2
24/09:30pm 5.5 0.7 5.4 99 0.0 S 20 22 11 12 1004.6 1004.5 0.2
24/09:00pm 5.7 0.5 5.6 99 0.0 S 22 26 12 14 1004.5 1004.4 0.2
24/08:30pm 5.8 0.3 5.7 99 0.0 S 24 28 13 15 1004.2 1004.0 0.2
24/08:00pm 6.0 0.1 6.0 100 0.0 S 26 33 14 18 1003.8 1003.7 0.0
24/07:30pm 6.1 -0.1 6.1 100 0.0 S 28 33 15 18 1003.7 1003.6 0.0
24/07:00pm 6.2 0.4 6.2 100 0.0 S 26 30 14 16 1003.6 1003.5 0.0
24/06:30pm 6.4 1.0 6.4 100 0.0 S 24 30 13 16 1003.3 1003.1 0.0
24/06:00pm 6.5 1.5 6.5 100 0.0 S 22 28 12 15 1003.1 1002.9 0.0
24/05:30pm 6.4 2.0 6.4 100 0.0 S 19 22 10 12 1003.1 1002.9 0.0
24/05:00pm 6.8 2.8 6.8 100 0.0 SSW 17 20 9 11 1003.1 1002.9 0.0
24/04:30pm 6.8 2.8 6.8 100 0.0 SSW 17 20 9 11 1002.8 1002.7 0.0
24/04:00pm 7.0 2.7 7.0 100 0.0 SSW 19 24 10 13 1002.7 1002.6 0.0
24/03:30pm 7.1 2.6 7.1 100 0.0 S 20 26 11 14 1002.5 1002.3 0.0
24/03:00pm 7.0 2.5 7.0 100 0.0 SSW 20 26 11 14 1002.6 1002.4 0.0
24/02:30pm 7.1 3.2 7.1 100 0.0 S 17 19 9 10 1002.7 1002.6 0.0
24/02:00pm 7.1 3.2 7.1 100 0.0 SSW 17 22 9 12 1003.0 1002.8 0.0
24/01:30pm 7.2 3.3 7.1 99 0.0 S 17 22 9 12 1003.1 1002.9 0.0
24/01:00pm 7.3 4.2 7.2 99 0.0 SSW 13 17 7 9 1003.3 1003.1 0.0
24/12:30pm 8.2 6.5 7.4 95 0.4 SE 6 9 3 5 1003.6 1003.5 0.0
24/12:00pm 8.5 6.8 7.6 94 0.5 SE 6 9 3 5 1004.1 1003.9 0.0
24/11:30am 7.7 5.9 7.1 96 0.3 SE 6 7 3 4 1004.3 1004.2 0.0
24/11:00am 7.5 5.6 7.4 99 0.1 S 7 11 4 6 1004.5 1004.4 0.0
24/10:30am 6.8 3.9 6.7 99 0.0 SSE 11 15 6 8 1004.4 1004.3 0.0
24/10:00am 7.1 4.7 7.0 99 0.0 S 9 13 5 7 1004.7 1004.6 0.0
24/09:30am 7.2 4.8 7.1 99 0.0 S 9 11 5 6 1005.0 1004.8 0.0
24/09:00am 7.0 4.6 6.9 99 0.0 S 9 11 5 6 1005.3 1005.2 0.2
24/08:30am 6.5 4.0 6.4 99 0.0 S 9 9 5 5 1005.4 1005.3 0.2
24/08:00am 6.1 3.9 6.0 99 0.0 S 7 9 4 5 1005.7 1005.6 0.2
24/07:30am 5.7 3.0 5.6 99 0.0 SSW 9 11 5 6 1005.7 1005.6 0.2
24/07:00am 5.3 1.4 5.2 99 0.0 SSW 15 17 8 9 1005.7 1005.6 0.2

Other Formats:

Comma delimited format used in spreadsheet applications
http://www.bom.gov.au/fwo/IDT60801/IDT60801.95952.axf

JavaScript Object Notation format (JSON) in row-major order
http://www.bom.gov.au/fwo/IDT60801/IDT60801.95952.json